Hastings, NE (68901)

2:42 AM CST on February 24, 2017 (GMT -0600)
West 12th Street | | Change Station

Elev 1934 ft 40.60 °N, 98.40 °W | Updated 12 seconds ago

Overcast
Overcast
26.4 °F
Feels Like 20 °F
N
6.0
Wind Variable Wind from North
Gusts 22.0 mph

Today
High -- | Low -- °F
--% Chance of Precip.
Yesterday
High -- | Low -- °F
Precip. -- in
Pressure 29.71 in
Visibility 4.0 miles
Clouds Mostly Cloudy 900 ft
Overcast 1300 ft
Windchill 20 °F
Dew Point 26 °F
Humidity 99%
Rainfall 0.00 in
Snow Depth Not available.
7:14 AM 6:19 PM
Waning Crescent, 6% visible
SPECI KHSI 240836Z AUTO 36017KT 4SM BR BKN009 OVC013 M02/M04 A2971 RMK AO2 FZRAE36 P0000 I1005 T10221039
Pressure 29.71 in
Visibility 4.0 miles
Clouds Mostly Cloudy 900 ft
Overcast 1300 ft
Windchill 20 °F
Dew Point 26 °F
Humidity 99%
Rainfall 0.00 in
Snow Depth Not available.
7:14 AM 6:19 PM
Waning Crescent, 6% visible
SPECI KHSI 240836Z AUTO 36017KT 4SM BR BKN009 OVC013 M02/M04 A2971 RMK AO2 FZRAE36 P0000 I1005 T10221039

Get Your Daily Forecast Email!

Thanks for signing up!

Be on the lookout for a verification email in your inbox.

You'll start receiving the daily forecast at 8 AM.

×

10-Day Weather Forecast

Almanac

Astronomy

Feb. 24, 2017 Rise Set
Actual Time
Civil Twilight
Nautical Twilight
Astronomical Twilight
Moon
Length of Visible Light
Length of Day
Tomorrow will be .
, % of the Moon is Illuminated

Today's Extremes

State Highs State Lows

Community

WunderPhotos

Upload Photos

1,962,540 photos uploaded!

WunderBlog® & News

Nearby

Air Quality

  Air Quality AQ Index Pollutant
Not available.

Snow Depth

Station Depth Elevation

Earthquake Activity

City Distance Mag. Time & Date
Minimum magnitude displayed is 2.5.

Coastal Water Temperatures

Place Temperature

Stations

Nearby Weather Stations

Station Location Temp. Windchill Dew Point Humidity Wind Precip. Elev Updated Type
                   

Watches & Warnings

There are currently no watches in effect.